Roosevelt, Minnesota
Current Conditions -  °F | °C
As of 3:14 AM on Thursday 23 Oct 2014 (Local Time) from KRRT Reporting Station
Clear Clear  
Wind Chill: 50°   Ceiling: Unl
Heat Index: 50°   Visibility: 7mi
Dew Point: 46°   Wind: 6mph
Humidity: 87%   Direction: 200°SSW
Pressure: 29.83"   Gusts: NA
Location:  48.8°N, 95.1°W
Report Text: KRRT 230814Z AUTO 20005KT 7SM CLR 10/08 A2983 RMK AO2
Loading
Personal Weather Stations






























Interactive Weather Map
Tropical Storm Tracking
New forecast layout! Learn more

10-Day Weather Forecast

Advertisements
Track Severe Weather on mobile